<?xml version="1.0" encoding="utf-8"?>
<gpx xmlns:xsi="http://www.w3.org/2001/XMLSchema-instance" xmlns:xsd="http://www.w3.org/2001/XMLSchema" version="1.1" creator="Shapelink.com" xmlns="http://www.topografix.com/GPX/1/1" xmlns:gpxtpx="http://www.garmin.com/xmlschemas/TrackPointExtension/v1">
  <metadata>
    <name>Cycling 11.19 km, 2020-07-10</name>
    <desc></desc>
    <author><name>Marian Moron</name></author> 
    <time>2020-07-10T18:57:48Z</time>
  </metadata>
  <trk>
    <name>Cycling 11.19 km, 2020-07-10</name>
    <trkseg>
      <trkpt lat="51.228580574276" lon="4.449553491759">
        <ele>1.4</ele>
        <time>2020-07-10T18:57:48Z</time>
      </trkpt>
      <trkpt lat="51.22893898432" lon="4.448939266127">
        <ele>0</ele>
        <time>2020-07-10T18:58:13Z</time>
      </trkpt>
      <trkpt lat="51.229003776407" lon="4.448779088018">
        <ele>0</ele>
        <time>2020-07-10T18:58:22Z</time>
      </trkpt>
      <trkpt lat="51.228663806543" lon="4.448107194914">
        <ele>0</ele>
        <time>2020-07-10T18:58:44Z</time>
      </trkpt>
      <trkpt lat="51.228350323483" lon="4.447548541279">
        <ele>0</ele>
        <time>2020-07-10T18:59:00Z</time>
      </trkpt>
      <trkpt lat="51.227976323105" lon="4.447867556393">
        <ele>0</ele>
        <time>2020-07-10T18:59:16Z</time>
      </trkpt>
      <trkpt lat="51.228095346085" lon="4.44759288153">
        <ele>0</ele>
        <time>2020-07-10T18:59:29Z</time>
      </trkpt>
      <trkpt lat="51.228081180674" lon="4.447422226046">
        <ele>1.2</ele>
        <time>2020-07-10T19:03:27Z</time>
      </trkpt>
      <trkpt lat="51.228069948928" lon="4.447438906027">
        <ele>1.2</ele>
        <time>2020-07-10T19:03:28Z</time>
      </trkpt>
      <trkpt lat="51.227669042651" lon="4.448029746158">
        <ele>0</ele>
        <time>2020-07-10T19:03:46Z</time>
      </trkpt>
      <trkpt lat="51.227269393659" lon="4.448656125545">
        <ele>0</ele>
        <time>2020-07-10T19:04:04Z</time>
      </trkpt>
      <trkpt lat="51.227037466486" lon="4.449460285031">
        <ele>0</ele>
        <time>2020-07-10T19:04:20Z</time>
      </trkpt>
      <trkpt lat="51.226620047866" lon="4.449553491759">
        <ele>0</ele>
        <time>2020-07-10T19:04:50Z</time>
      </trkpt>
      <trkpt lat="51.226308157367" lon="4.448930213675">
        <ele>0</ele>
        <time>2020-07-10T19:05:06Z</time>
      </trkpt>
      <trkpt lat="51.225945640192" lon="4.449585426798">
        <ele>0</ele>
        <time>2020-07-10T19:05:20Z</time>
      </trkpt>
      <trkpt lat="51.225826365755" lon="4.449690535824">
        <ele>0</ele>
        <time>2020-07-10T19:05:23Z</time>
      </trkpt>
      <trkpt lat="51.225556384756" lon="4.449779216326">
        <ele>0</ele>
        <time>2020-07-10T19:05:29Z</time>
      </trkpt>
      <trkpt lat="51.225222198403" lon="4.449844092232">
        <ele>0</ele>
        <time>2020-07-10T19:05:37Z</time>
      </trkpt>
      <trkpt lat="51.224787261612" lon="4.450372822484">
        <ele>0</ele>
        <time>2020-07-10T19:05:49Z</time>
      </trkpt>
      <trkpt lat="51.224400604565" lon="4.450986629021">
        <ele>0</ele>
        <time>2020-07-10T19:06:00Z</time>
      </trkpt>
      <trkpt lat="51.224069770972" lon="4.451469091185">
        <ele>0</ele>
        <time>2020-07-10T19:06:10Z</time>
      </trkpt>
      <trkpt lat="51.223510782061" lon="4.451329364912">
        <ele>0</ele>
        <time>2020-07-10T19:06:25Z</time>
      </trkpt>
      <trkpt lat="51.222981045981" lon="4.45113507247">
        <ele>0</ele>
        <time>2020-07-10T19:06:39Z</time>
      </trkpt>
      <trkpt lat="51.222413926627" lon="4.451137922316">
        <ele>0</ele>
        <time>2020-07-10T19:06:55Z</time>
      </trkpt>
      <trkpt lat="51.221889974058" lon="4.451387283841">
        <ele>0</ele>
        <time>2020-07-10T19:07:11Z</time>
      </trkpt>
      <trkpt lat="51.221359651245" lon="4.451617115539">
        <ele>0</ele>
        <time>2020-07-10T19:07:30Z</time>
      </trkpt>
      <trkpt lat="51.220793118624" lon="4.451691043897">
        <ele>0</ele>
        <time>2020-07-10T19:07:45Z</time>
      </trkpt>
      <trkpt lat="51.220257347576" lon="4.451794057448">
        <ele>0</ele>
        <time>2020-07-10T19:07:58Z</time>
      </trkpt>
      <trkpt lat="51.219710260963" lon="4.45189111985">
        <ele>0</ele>
        <time>2020-07-10T19:08:11Z</time>
      </trkpt>
      <trkpt lat="51.219178680865" lon="4.452035707625">
        <ele>0</ele>
        <time>2020-07-10T19:08:23Z</time>
      </trkpt>
      <trkpt lat="51.219078349522" lon="4.451982566379">
        <ele>0</ele>
        <time>2020-07-10T19:08:25Z</time>
      </trkpt>
      <trkpt lat="51.218992686504" lon="4.451867399073">
        <ele>0</ele>
        <time>2020-07-10T19:08:27Z</time>
      </trkpt>
      <trkpt lat="51.218901994346" lon="4.451756338898">
        <ele>0</ele>
        <time>2020-07-10T19:08:29Z</time>
      </trkpt>
      <trkpt lat="51.218545763596" lon="4.451627006181">
        <ele>0</ele>
        <time>2020-07-10T19:08:36Z</time>
      </trkpt>
      <trkpt lat="51.218440822208" lon="4.451674783011">
        <ele>0</ele>
        <time>2020-07-10T19:08:38Z</time>
      </trkpt>
      <trkpt lat="51.21825541458" lon="4.452427226174">
        <ele>0</ele>
        <time>2020-07-10T19:08:51Z</time>
      </trkpt>
      <trkpt lat="51.218213840356" lon="4.453302380353">
        <ele>0</ele>
        <time>2020-07-10T19:09:05Z</time>
      </trkpt>
      <trkpt lat="51.218163129861" lon="4.45418608407">
        <ele>0</ele>
        <time>2020-07-10T19:09:20Z</time>
      </trkpt>
      <trkpt lat="51.218116526497" lon="4.455083282646">
        <ele>2.4</ele>
        <time>2020-07-10T19:09:36Z</time>
      </trkpt>
      <trkpt lat="51.218076461015" lon="4.455976290272">
        <ele>3.8</ele>
        <time>2020-07-10T19:09:51Z</time>
      </trkpt>
      <trkpt lat="51.218064055803" lon="4.456870052269">
        <ele>2.6</ele>
        <time>2020-07-10T19:10:06Z</time>
      </trkpt>
      <trkpt lat="51.218013010032" lon="4.457736573091">
        <ele>3.4</ele>
        <time>2020-07-10T19:10:21Z</time>
      </trkpt>
      <trkpt lat="51.217991636187" lon="4.458653217675">
        <ele>0</ele>
        <time>2020-07-10T19:10:36Z</time>
      </trkpt>
      <trkpt lat="51.21798635559" lon="4.459552511726">
        <ele>1.8</ele>
        <time>2020-07-10T19:10:50Z</time>
      </trkpt>
      <trkpt lat="51.217941009511" lon="4.460465719731">
        <ele>7.2</ele>
        <time>2020-07-10T19:11:04Z</time>
      </trkpt>
      <trkpt lat="51.217858280158" lon="4.461306340482">
        <ele>3.2</ele>
        <time>2020-07-10T19:11:20Z</time>
      </trkpt>
      <trkpt lat="51.217853502475" lon="4.46178260004">
        <ele>1.8</ele>
        <time>2020-07-10T19:11:28Z</time>
      </trkpt>
      <trkpt lat="51.217801450876" lon="4.462662615721">
        <ele>0</ele>
        <time>2020-07-10T19:11:42Z</time>
      </trkpt>
      <trkpt lat="51.217757697358" lon="4.463570794586">
        <ele>0</ele>
        <time>2020-07-10T19:11:57Z</time>
      </trkpt>
      <trkpt lat="51.217752584399" lon="4.464212680488">
        <ele>0</ele>
        <time>2020-07-10T19:12:07Z</time>
      </trkpt>
      <trkpt lat="51.217693408185" lon="4.465092360893">
        <ele>0</ele>
        <time>2020-07-10T19:12:21Z</time>
      </trkpt>
      <trkpt lat="51.217636662722" lon="4.46599785755">
        <ele>0</ele>
        <time>2020-07-10T19:12:34Z</time>
      </trkpt>
      <trkpt lat="51.217619312189" lon="4.466903270388">
        <ele>3.2</ele>
        <time>2020-07-10T19:12:48Z</time>
      </trkpt>
      <trkpt lat="51.21756223145" lon="4.467767192821">
        <ele>6</ele>
        <time>2020-07-10T19:13:01Z</time>
      </trkpt>
      <trkpt lat="51.217524261443" lon="4.468655590402">
        <ele>0</ele>
        <time>2020-07-10T19:13:14Z</time>
      </trkpt>
      <trkpt lat="51.217496936449" lon="4.469561589973">
        <ele>0</ele>
        <time>2020-07-10T19:13:28Z</time>
      </trkpt>
      <trkpt lat="51.217505318349" lon="4.470433475211">
        <ele>0</ele>
        <time>2020-07-10T19:13:42Z</time>
      </trkpt>
      <trkpt lat="51.217434323656" lon="4.471323800629">
        <ele>0</ele>
        <time>2020-07-10T19:13:58Z</time>
      </trkpt>
      <trkpt lat="51.217382188238" lon="4.472190908184">
        <ele>1.8</ele>
        <time>2020-07-10T19:14:13Z</time>
      </trkpt>
      <trkpt lat="51.217363496601" lon="4.473064050707">
        <ele>0.6</ele>
        <time>2020-07-10T19:14:28Z</time>
      </trkpt>
      <trkpt lat="51.217341703661" lon="4.47397155902">
        <ele>0</ele>
        <time>2020-07-10T19:14:43Z</time>
      </trkpt>
      <trkpt lat="51.217281018705" lon="4.474857693488">
        <ele>5.4</ele>
        <time>2020-07-10T19:14:58Z</time>
      </trkpt>
      <trkpt lat="51.217216310437" lon="4.475767884009">
        <ele>2.6</ele>
        <time>2020-07-10T19:15:12Z</time>
      </trkpt>
      <trkpt lat="51.217182112285" lon="4.476640775075">
        <ele>0</ele>
        <time>2020-07-10T19:15:25Z</time>
      </trkpt>
      <trkpt lat="51.2171557093" lon="4.477236560527">
        <ele>0</ele>
        <time>2020-07-10T19:15:34Z</time>
      </trkpt>
      <trkpt lat="51.217116649646" lon="4.477366899072">
        <ele>0</ele>
        <time>2020-07-10T19:15:36Z</time>
      </trkpt>
      <trkpt lat="51.217057976346" lon="4.477482150197">
        <ele>0</ele>
        <time>2020-07-10T19:15:38Z</time>
      </trkpt>
      <trkpt lat="51.216971558957" lon="4.477549875949">
        <ele>0</ele>
        <time>2020-07-10T19:15:40Z</time>
      </trkpt>
      <trkpt lat="51.216867707216" lon="4.477558509306">
        <ele>0</ele>
        <time>2020-07-10T19:15:42Z</time>
      </trkpt>
      <trkpt lat="51.216304862631" lon="4.477595724942">
        <ele>0</ele>
        <time>2020-07-10T19:15:54Z</time>
      </trkpt>
      <trkpt lat="51.216213332283" lon="4.477636209519">
        <ele>0</ele>
        <time>2020-07-10T19:15:56Z</time>
      </trkpt>
      <trkpt lat="51.216041670971" lon="4.47776520696">
        <ele>0</ele>
        <time>2020-07-10T19:16:00Z</time>
      </trkpt>
      <trkpt lat="51.215969754269" lon="4.477865370665">
        <ele>0</ele>
        <time>2020-07-10T19:16:02Z</time>
      </trkpt>
      <trkpt lat="51.215623749437" lon="4.478591494662">
        <ele>0</ele>
        <time>2020-07-10T19:16:14Z</time>
      </trkpt>
      <trkpt lat="51.215518640411" lon="4.478785032733">
        <ele>0</ele>
        <time>2020-07-10T19:16:18Z</time>
      </trkpt>
      <trkpt lat="51.215440688741" lon="4.478825098215">
        <ele>0</ele>
        <time>2020-07-10T19:16:20Z</time>
      </trkpt>
      <trkpt lat="51.215086050552" lon="4.478760809042">
        <ele>0</ele>
        <time>2020-07-10T19:16:28Z</time>
      </trkpt>
      <trkpt lat="51.214593111013" lon="4.478325285518">
        <ele>0</ele>
        <time>2020-07-10T19:16:43Z</time>
      </trkpt>
      <trkpt lat="51.214162113715" lon="4.477813905799">
        <ele>0</ele>
        <time>2020-07-10T19:16:58Z</time>
      </trkpt>
      <trkpt lat="51.214089777918" lon="4.477806529727">
        <ele>0</ele>
        <time>2020-07-10T19:17:01Z</time>
      </trkpt>
      <trkpt lat="51.213632126178" lon="4.478202574502">
        <ele>0</ele>
        <time>2020-07-10T19:17:16Z</time>
      </trkpt>
      <trkpt lat="51.213373879839" lon="4.478844711861">
        <ele>0</ele>
        <time>2020-07-10T19:17:31Z</time>
      </trkpt>
      <trkpt lat="51.213329204312" lon="4.479023916883">
        <ele>0</ele>
        <time>2020-07-10T19:17:34Z</time>
      </trkpt>
      <trkpt lat="51.213239769439" lon="4.479058366492">
        <ele>0</ele>
        <time>2020-07-10T19:17:37Z</time>
      </trkpt>
      <trkpt lat="51.212769796306" lon="4.478615383077">
        <ele>0</ele>
        <time>2020-07-10T19:17:52Z</time>
      </trkpt>
      <trkpt lat="51.212224050797" lon="4.478393095089">
        <ele>0.8</ele>
        <time>2020-07-10T19:18:07Z</time>
      </trkpt>
      <trkpt lat="51.21199832623" lon="4.478309276089">
        <ele>0.8</ele>
        <time>2020-07-10T19:18:14Z</time>
      </trkpt>
      <trkpt lat="51.211985585742" lon="4.477404114708">
        <ele>0</ele>
        <time>2020-07-10T19:18:29Z</time>
      </trkpt>
      <trkpt lat="51.211956752006" lon="4.476559219188">
        <ele>0</ele>
        <time>2020-07-10T19:18:49Z</time>
      </trkpt>
      <trkpt lat="51.211944933527" lon="4.476588220562">
        <ele>0</ele>
        <time>2020-07-10T19:20:15Z</time>
      </trkpt>
      <trkpt lat="51.211937641274" lon="4.476634572469">
        <ele>0</ele>
        <time>2020-07-10T19:20:25Z</time>
      </trkpt>
      <trkpt lat="51.2119421675" lon="4.476729874672">
        <ele>0</ele>
        <time>2020-07-10T19:20:34Z</time>
      </trkpt>
      <trkpt lat="51.211979718412" lon="4.477599412978">
        <ele>0</ele>
        <time>2020-07-10T19:20:59Z</time>
      </trkpt>
      <trkpt lat="51.211989692873" lon="4.478354370711">
        <ele>0</ele>
        <time>2020-07-10T19:21:15Z</time>
      </trkpt>
      <trkpt lat="51.212002936275" lon="4.478384377913">
        <ele>0</ele>
        <time>2020-07-10T19:21:24Z</time>
      </trkpt>
      <trkpt lat="51.21253979697" lon="4.478523014539">
        <ele>0</ele>
        <time>2020-07-10T19:21:42Z</time>
      </trkpt>
      <trkpt lat="51.213046650463" lon="4.478918891676">
        <ele>0</ele>
        <time>2020-07-10T19:21:56Z</time>
      </trkpt>
      <trkpt lat="51.213497429045" lon="4.479388529533">
        <ele>0</ele>
        <time>2020-07-10T19:22:09Z</time>
      </trkpt>
      <trkpt lat="51.213957260079" lon="4.47985146187">
        <ele>0</ele>
        <time>2020-07-10T19:22:22Z</time>
      </trkpt>
      <trkpt lat="51.214430083058" lon="4.480273239078">
        <ele>0</ele>
        <time>2020-07-10T19:22:41Z</time>
      </trkpt>
      <trkpt lat="51.214964010088" lon="4.480359321191">
        <ele>0</ele>
        <time>2020-07-10T19:22:59Z</time>
      </trkpt>
      <trkpt lat="51.215510761425" lon="4.480364015055">
        <ele>0</ele>
        <time>2020-07-10T19:23:14Z</time>
      </trkpt>
      <trkpt lat="51.216071594354" lon="4.480383796339">
        <ele>0</ele>
        <time>2020-07-10T19:23:29Z</time>
      </trkpt>
      <trkpt lat="51.216621614632" lon="4.480367619272">
        <ele>0</ele>
        <time>2020-07-10T19:23:44Z</time>
      </trkpt>
      <trkpt lat="51.2170551265" lon="4.480422017803">
        <ele>0.4</ele>
        <time>2020-07-10T19:24:00Z</time>
      </trkpt>
      <trkpt lat="51.217046828419" lon="4.480842621545">
        <ele>0</ele>
        <time>2020-07-10T19:24:11Z</time>
      </trkpt>
      <trkpt lat="51.217137939672" lon="4.481824477311">
        <ele>0.2</ele>
        <time>2020-07-10T19:24:32Z</time>
      </trkpt>
      <trkpt lat="51.217654348531" lon="4.48158064784">
        <ele>1.6</ele>
        <time>2020-07-10T19:24:49Z</time>
      </trkpt>
      <trkpt lat="51.218175870349" lon="4.481312175583">
        <ele>1.6</ele>
        <time>2020-07-10T19:25:04Z</time>
      </trkpt>
      <trkpt lat="51.218715664709" lon="4.481036913987">
        <ele>0.6</ele>
        <time>2020-07-10T19:25:21Z</time>
      </trkpt>
      <trkpt lat="51.219213130474" lon="4.480716809226">
        <ele>0</ele>
        <time>2020-07-10T19:25:36Z</time>
      </trkpt>
      <trkpt lat="51.219380349379" lon="4.480436183214">
        <ele>0.4</ele>
        <time>2020-07-10T19:25:44Z</time>
      </trkpt>
      <trkpt lat="51.219223691668" lon="4.479602100345">
        <ele>1</ele>
        <time>2020-07-10T19:25:58Z</time>
      </trkpt>
      <trkpt lat="51.219044654284" lon="4.478756115178">
        <ele>0.2</ele>
        <time>2020-07-10T19:26:14Z</time>
      </trkpt>
      <trkpt lat="51.218921356535" lon="4.477886660691">
        <ele>5.4</ele>
        <time>2020-07-10T19:26:29Z</time>
      </trkpt>
      <trkpt lat="51.218739972219" lon="4.477061462636">
        <ele>3.8</ele>
        <time>2020-07-10T19:26:45Z</time>
      </trkpt>
      <trkpt lat="51.218784647746" lon="4.47620701175">
        <ele>1.4</ele>
        <time>2020-07-10T19:27:03Z</time>
      </trkpt>
      <trkpt lat="51.218862012683" lon="4.475433613837">
        <ele>0.4</ele>
        <time>2020-07-10T19:27:17Z</time>
      </trkpt>
      <trkpt lat="51.219057981505" lon="4.475437301873">
        <ele>1.2</ele>
        <time>2020-07-10T19:27:26Z</time>
      </trkpt>
      <trkpt lat="51.219501635472" lon="4.475456077329">
        <ele>1.4</ele>
        <time>2020-07-10T19:27:42Z</time>
      </trkpt>
      <trkpt lat="51.219850825426" lon="4.476111793366">
        <ele>0</ele>
        <time>2020-07-10T19:27:57Z</time>
      </trkpt>
      <trkpt lat="51.220242930708" lon="4.476762061168">
        <ele>0</ele>
        <time>2020-07-10T19:28:12Z</time>
      </trkpt>
      <trkpt lat="51.220513246983" lon="4.477522634774">
        <ele>0</ele>
        <time>2020-07-10T19:28:25Z</time>
      </trkpt>
      <trkpt lat="51.220818264324" lon="4.478279520344">
        <ele>0</ele>
        <time>2020-07-10T19:28:39Z</time>
      </trkpt>
      <trkpt lat="51.221116240869" lon="4.479003716504">
        <ele>0</ele>
        <time>2020-07-10T19:28:53Z</time>
      </trkpt>
      <trkpt lat="51.221380605995" lon="4.479732941804">
        <ele>0</ele>
        <time>2020-07-10T19:29:11Z</time>
      </trkpt>
      <trkpt lat="51.2213969507" lon="4.479768900155">
        <ele>0.4</ele>
        <time>2020-07-10T19:29:20Z</time>
      </trkpt>
      <trkpt lat="51.221575904265" lon="4.480026475942">
        <ele>0.4</ele>
        <time>2020-07-10T19:29:30Z</time>
      </trkpt>
      <trkpt lat="51.221595182635" lon="4.480047095416">
        <ele>0</ele>
        <time>2020-07-10T19:29:52Z</time>
      </trkpt>
      <trkpt lat="51.222118716109" lon="4.479715004538">
        <ele>2.2</ele>
        <time>2020-07-10T19:30:11Z</time>
      </trkpt>
      <trkpt lat="51.222644764153" lon="4.479442592788">
        <ele>3.2</ele>
        <time>2020-07-10T19:30:26Z</time>
      </trkpt>
      <trkpt lat="51.223205177987" lon="4.479293562606">
        <ele>5.4</ele>
        <time>2020-07-10T19:30:41Z</time>
      </trkpt>
      <trkpt lat="51.223757796654" lon="4.479298675565">
        <ele>6.4</ele>
        <time>2020-07-10T19:30:56Z</time>
      </trkpt>
      <trkpt lat="51.224327346759" lon="4.479318289211">
        <ele>9.2</ele>
        <time>2020-07-10T19:31:10Z</time>
      </trkpt>
      <trkpt lat="51.224527255074" lon="4.479294819891">
        <ele>8</ele>
        <time>2020-07-10T19:31:15Z</time>
      </trkpt>
      <trkpt lat="51.225066881796" lon="4.479300435764">
        <ele>6.8</ele>
        <time>2020-07-10T19:31:29Z</time>
      </trkpt>
      <trkpt lat="51.225606173242" lon="4.479279648652">
        <ele>7.4</ele>
        <time>2020-07-10T19:31:44Z</time>
      </trkpt>
      <trkpt lat="51.226144877955" lon="4.479327257844">
        <ele>1.8</ele>
        <time>2020-07-10T19:32:00Z</time>
      </trkpt>
      <trkpt lat="51.226717026449" lon="4.479331113518">
        <ele>1.4</ele>
        <time>2020-07-10T19:32:17Z</time>
      </trkpt>
      <trkpt lat="51.227288085296" lon="4.479353744648">
        <ele>1.8</ele>
        <time>2020-07-10T19:32:34Z</time>
      </trkpt>
      <trkpt lat="51.227848834406" lon="4.479343015816">
        <ele>1.6</ele>
        <time>2020-07-10T19:32:50Z</time>
      </trkpt>
      <trkpt lat="51.228415618484" lon="4.479317199564">
        <ele>2.4</ele>
        <time>2020-07-10T19:33:07Z</time>
      </trkpt>
      <trkpt lat="51.228970332626" lon="4.479272943132">
        <ele>5.4</ele>
        <time>2020-07-10T19:33:24Z</time>
      </trkpt>
      <trkpt lat="51.229170240941" lon="4.479433791793">
        <ele>7</ele>
        <time>2020-07-10T19:33:32Z</time>
      </trkpt>
      <trkpt lat="51.229142832128" lon="4.479473102904">
        <ele>22.4</ele>
        <time>2020-07-10T19:35:07Z</time>
      </trkpt>
      <trkpt lat="51.229183316705" lon="4.479145370614">
        <ele>21.2</ele>
        <time>2020-07-10T19:35:16Z</time>
      </trkpt>
      <trkpt lat="51.229137886807" lon="4.479002962133">
        <ele>20</ele>
        <time>2020-07-10T19:35:21Z</time>
      </trkpt>
      <trkpt lat="51.229113244021" lon="4.478890812311">
        <ele>19.2</ele>
        <time>2020-07-10T19:35:25Z</time>
      </trkpt>
      <trkpt lat="51.229090361434" lon="4.478756366635">
        <ele>19.2</ele>
        <time>2020-07-10T19:35:31Z</time>
      </trkpt>
      <trkpt lat="51.229027329546" lon="4.478627536832">
        <ele>18.2</ele>
        <time>2020-07-10T19:35:35Z</time>
      </trkpt>
      <trkpt lat="51.229045350631" lon="4.478596439983">
        <ele>18.2</ele>
        <time>2020-07-10T19:35:36Z</time>
      </trkpt>
      <trkpt lat="51.229152974227" lon="4.478733400229">
        <ele>0</ele>
        <time>2020-07-10T19:36:58Z</time>
      </trkpt>
      <trkpt lat="51.229108801614" lon="4.478739938111">
        <ele>0</ele>
        <time>2020-07-10T19:37:07Z</time>
      </trkpt>
      <trkpt lat="51.229076028385" lon="4.478655867654">
        <ele>0</ele>
        <time>2020-07-10T19:37:10Z</time>
      </trkpt>
      <trkpt lat="51.229026323718" lon="4.477783144226">
        <ele>0</ele>
        <time>2020-07-10T19:37:29Z</time>
      </trkpt>
      <trkpt lat="51.229019702017" lon="4.477495477418">
        <ele>0</ele>
        <time>2020-07-10T19:37:36Z</time>
      </trkpt>
      <trkpt lat="51.228863631039" lon="4.47737293404">
        <ele>0</ele>
        <time>2020-07-10T19:37:43Z</time>
      </trkpt>
      <trkpt lat="51.228352670415" lon="4.477289785592">
        <ele>0</ele>
        <time>2020-07-10T19:38:01Z</time>
      </trkpt>
      <trkpt lat="51.228255356556" lon="4.477082249748">
        <ele>0</ele>
        <time>2020-07-10T19:44:46Z</time>
      </trkpt>
      <trkpt lat="51.228104398537" lon="4.476794247664">
        <ele>0</ele>
        <time>2020-07-10T19:44:57Z</time>
      </trkpt>
      <trkpt lat="51.227699636586" lon="4.476202317886">
        <ele>0</ele>
        <time>2020-07-10T19:45:17Z</time>
      </trkpt>
      <trkpt lat="51.227332509366" lon="4.475517600475">
        <ele>0</ele>
        <time>2020-07-10T19:45:32Z</time>
      </trkpt>
      <trkpt lat="51.226952054925" lon="4.474839756222">
        <ele>0</ele>
        <time>2020-07-10T19:45:49Z</time>
      </trkpt>
      <trkpt lat="51.226581407307" lon="4.474179178683">
        <ele>0</ele>
        <time>2020-07-10T19:46:03Z</time>
      </trkpt>
      <trkpt lat="51.22620732311" lon="4.473485073544">
        <ele>0</ele>
        <time>2020-07-10T19:46:18Z</time>
      </trkpt>
      <trkpt lat="51.225954608825" lon="4.472988110693">
        <ele>0</ele>
        <time>2020-07-10T19:46:29Z</time>
      </trkpt>
      <trkpt lat="51.225956788119" lon="4.472837152674">
        <ele>0</ele>
        <time>2020-07-10T19:46:32Z</time>
      </trkpt>
      <trkpt lat="51.225666774379" lon="4.472249246208">
        <ele>0</ele>
        <time>2020-07-10T19:46:46Z</time>
      </trkpt>
      <trkpt lat="51.225766770446" lon="4.471399237729">
        <ele>0</ele>
        <time>2020-07-10T19:47:02Z</time>
      </trkpt>
      <trkpt lat="51.225779930029" lon="4.470506397741">
        <ele>0</ele>
        <time>2020-07-10T19:47:18Z</time>
      </trkpt>
      <trkpt lat="51.225804321358" lon="4.469603080378">
        <ele>0</ele>
        <time>2020-07-10T19:47:33Z</time>
      </trkpt>
      <trkpt lat="51.225822258624" lon="4.468735553728">
        <ele>0</ele>
        <time>2020-07-10T19:47:49Z</time>
      </trkpt>
      <trkpt lat="51.225837346044" lon="4.467875151693">
        <ele>0</ele>
        <time>2020-07-10T19:48:04Z</time>
      </trkpt>
      <trkpt lat="51.225841704632" lon="4.467014833477">
        <ele>0</ele>
        <time>2020-07-10T19:48:19Z</time>
      </trkpt>
      <trkpt lat="51.225879674639" lon="4.46624931455">
        <ele>0</ele>
        <time>2020-07-10T19:48:33Z</time>
      </trkpt>
      <trkpt lat="51.226419636637" lon="4.466354172119">
        <ele>0</ele>
        <time>2020-07-10T19:48:48Z</time>
      </trkpt>
      <trkpt lat="51.226963538128" lon="4.466473027461">
        <ele>1.8</ele>
        <time>2020-07-10T19:49:02Z</time>
      </trkpt>
      <trkpt lat="51.227504422135" lon="4.466666314075">
        <ele>1.2</ele>
        <time>2020-07-10T19:49:16Z</time>
      </trkpt>
      <trkpt lat="51.22769008122" lon="4.466904695311">
        <ele>0.2</ele>
        <time>2020-07-10T19:49:23Z</time>
      </trkpt>
      <trkpt lat="51.228021417727" lon="4.466380323647">
        <ele>0</ele>
        <time>2020-07-10T19:49:42Z</time>
      </trkpt>
      <trkpt lat="51.228086964185" lon="4.46629876776">
        <ele>0</ele>
        <time>2020-07-10T19:49:44Z</time>
      </trkpt>
      <trkpt lat="51.228358789202" lon="4.465935077119">
        <ele>0</ele>
        <time>2020-07-10T19:49:54Z</time>
      </trkpt>
      <trkpt lat="51.228440512727" lon="4.465852766861">
        <ele>0</ele>
        <time>2020-07-10T19:49:57Z</time>
      </trkpt>
      <trkpt lat="51.22849642" lon="4.465777748856">
        <ele>0</ele>
        <time>2020-07-10T19:49:59Z</time>
      </trkpt>
      <trkpt lat="51.228581663923" lon="4.465685380318">
        <ele>0</ele>
        <time>2020-07-10T19:50:02Z</time>
      </trkpt>
      <trkpt lat="51.228649222037" lon="4.465514473377">
        <ele>0</ele>
        <time>2020-07-10T19:50:05Z</time>
      </trkpt>
      <trkpt lat="51.228639918128" lon="4.465320348573">
        <ele>0</ele>
        <time>2020-07-10T19:50:08Z</time>
      </trkpt>
      <trkpt lat="51.22863639773" lon="4.465190932037">
        <ele>0</ele>
        <time>2020-07-10T19:50:10Z</time>
      </trkpt>
      <trkpt lat="51.228676547031" lon="4.464343773404">
        <ele>0</ele>
        <time>2020-07-10T19:50:25Z</time>
      </trkpt>
      <trkpt lat="51.229198739401" lon="4.464240676034">
        <ele>0</ele>
        <time>2020-07-10T19:50:39Z</time>
      </trkpt>
      <trkpt lat="51.22974197034" lon="4.464166999133">
        <ele>0</ele>
        <time>2020-07-10T19:50:53Z</time>
      </trkpt>
      <trkpt lat="51.230257038095" lon="4.463878158859">
        <ele>0</ele>
        <time>2020-07-10T19:51:11Z</time>
      </trkpt>
      <trkpt lat="51.230247063634" lon="4.463139126736">
        <ele>0</ele>
        <time>2020-07-10T19:51:25Z</time>
      </trkpt>
      <trkpt lat="51.230191323999" lon="4.46303401771">
        <ele>0</ele>
        <time>2020-07-10T19:51:27Z</time>
      </trkpt>
      <trkpt lat="51.230002312154" lon="4.462194235149">
        <ele>0</ele>
        <time>2020-07-10T19:51:43Z</time>
      </trkpt>
      <trkpt lat="51.229798715803" lon="4.461385633256">
        <ele>0</ele>
        <time>2020-07-10T19:52:00Z</time>
      </trkpt>
      <trkpt lat="51.22937232855" lon="4.460993695612">
        <ele>0</ele>
        <time>2020-07-10T19:52:18Z</time>
      </trkpt>
      <trkpt lat="51.228923393986" lon="4.46112545908">
        <ele>1</ele>
        <time>2020-07-10T19:52:30Z</time>
      </trkpt>
      <trkpt lat="51.228636984463" lon="4.461147671115">
        <ele>2.4</ele>
        <time>2020-07-10T19:52:37Z</time>
      </trkpt>
      <trkpt lat="51.228475716707" lon="4.461080364458">
        <ele>0</ele>
        <time>2020-07-10T19:52:41Z</time>
      </trkpt>
      <trkpt lat="51.228103895623" lon="4.460423307317">
        <ele>0</ele>
        <time>2020-07-10T19:52:55Z</time>
      </trkpt>
      <trkpt lat="51.228151588634" lon="4.460335465005">
        <ele>0</ele>
        <time>2020-07-10T19:52:57Z</time>
      </trkpt>
      <trkpt lat="51.2283874553" lon="4.459650831413">
        <ele>0</ele>
        <time>2020-07-10T19:53:11Z</time>
      </trkpt>
      <trkpt lat="51.228657101023" lon="4.459199130822">
        <ele>0</ele>
        <time>2020-07-10T19:53:22Z</time>
      </trkpt>
      <trkpt lat="51.228562469372" lon="4.458307715757">
        <ele>0</ele>
        <time>2020-07-10T19:53:37Z</time>
      </trkpt>
      <trkpt lat="51.228484601521" lon="4.457457623459">
        <ele>0</ele>
        <time>2020-07-10T19:53:51Z</time>
      </trkpt>
      <trkpt lat="51.228484350064" lon="4.457249500882">
        <ele>0</ele>
        <time>2020-07-10T19:53:55Z</time>
      </trkpt>
      <trkpt lat="51.228538664776" lon="4.457203987165">
        <ele>0</ele>
        <time>2020-07-10T19:53:57Z</time>
      </trkpt>
      <trkpt lat="51.229111148546" lon="4.457055459897">
        <ele>0</ele>
        <time>2020-07-10T19:54:12Z</time>
      </trkpt>
      <trkpt lat="51.229661923195" lon="4.456859155799">
        <ele>2.8</ele>
        <time>2020-07-10T19:54:26Z</time>
      </trkpt>
      <trkpt lat="51.230199454442" lon="4.456689338505">
        <ele>5.2</ele>
        <time>2020-07-10T19:54:41Z</time>
      </trkpt>
      <trkpt lat="51.230732375644" lon="4.456534943907">
        <ele>6.2</ele>
        <time>2020-07-10T19:54:55Z</time>
      </trkpt>
      <trkpt lat="51.231149375169" lon="4.456232860231">
        <ele>7.6</ele>
        <time>2020-07-10T19:55:08Z</time>
      </trkpt>
      <trkpt lat="51.230995567304" lon="4.456007135664">
        <ele>0</ele>
        <time>2020-07-10T19:55:17Z</time>
      </trkpt>
      <trkpt lat="51.231050301111" lon="4.455850142677">
        <ele>0</ele>
        <time>2020-07-10T19:55:24Z</time>
      </trkpt>
      <trkpt lat="51.231161528924" lon="4.45591527004">
        <ele>0</ele>
        <time>2020-07-10T19:55:29Z</time>
      </trkpt>
      <trkpt lat="51.23121969931" lon="4.455776633414">
        <ele>0</ele>
        <time>2020-07-10T19:55:32Z</time>
      </trkpt>
      <trkpt lat="51.231043427953" lon="4.454929642419">
        <ele>0</ele>
        <time>2020-07-10T19:55:48Z</time>
      </trkpt>
      <trkpt lat="51.230978887323" lon="4.454055829344">
        <ele>0</ele>
        <time>2020-07-10T19:56:05Z</time>
      </trkpt>
      <trkpt lat="51.230855673393" lon="4.453174221102">
        <ele>0</ele>
        <time>2020-07-10T19:56:18Z</time>
      </trkpt>
      <trkpt lat="51.230625087324" lon="4.452041407317">
        <ele>0</ele>
        <time>2020-07-10T19:56:37Z</time>
      </trkpt>
      <trkpt lat="51.230503801231" lon="4.45118871663">
        <ele>0</ele>
        <time>2020-07-10T19:56:51Z</time>
      </trkpt>
      <trkpt lat="51.230459963894" lon="4.450829300758">
        <ele>0</ele>
        <time>2020-07-10T19:56:58Z</time>
      </trkpt>
      <trkpt lat="51.229950176736" lon="4.450856039019">
        <ele>0</ele>
        <time>2020-07-10T19:57:14Z</time>
      </trkpt>
      <trkpt lat="51.22941172348" lon="4.451056869343">
        <ele>0</ele>
        <time>2020-07-10T19:57:29Z</time>
      </trkpt>
      <trkpt lat="51.228877293536" lon="4.451240768229">
        <ele>0</ele>
        <time>2020-07-10T19:57:43Z</time>
      </trkpt>
      <trkpt lat="51.228341103393" lon="4.451432294644">
        <ele>1</ele>
        <time>2020-07-10T19:57:55Z</time>
      </trkpt>
      <trkpt lat="51.227795357884" lon="4.451633460244">
        <ele>2</ele>
        <time>2020-07-10T19:58:06Z</time>
      </trkpt>
      <trkpt lat="51.227260341207" lon="4.451814425465">
        <ele>7</ele>
        <time>2020-07-10T19:58:20Z</time>
      </trkpt>
      <trkpt lat="51.226887598114" lon="4.451885923072">
        <ele>5.6</ele>
        <time>2020-07-10T19:58:34Z</time>
      </trkpt>
      <trkpt lat="51.226874857626" lon="4.451843175382">
        <ele>5.2</ele>
        <time>2020-07-10T19:58:36Z</time>
      </trkpt>
      <trkpt lat="51.226891118512" lon="4.450981348424">
        <ele>0.2</ele>
        <time>2020-07-10T19:58:56Z</time>
      </trkpt>
      <trkpt lat="51.226930178166" lon="4.450093621395">
        <ele>0</ele>
        <time>2020-07-10T19:59:13Z</time>
      </trkpt>
      <trkpt lat="51.226937638057" lon="4.4492214847">
        <ele>0</ele>
        <time>2020-07-10T19:59:33Z</time>
      </trkpt>
      <trkpt lat="51.226943840663" lon="4.448928285838">
        <ele>0.4</ele>
        <time>2020-07-10T19:59:41Z</time>
      </trkpt>
      <trkpt lat="51.227329827158" lon="4.448314814577">
        <ele>0</ele>
        <time>2020-07-10T19:59:59Z</time>
      </trkpt>
      <trkpt lat="51.227753867479" lon="4.447723471532">
        <ele>0</ele>
        <time>2020-07-10T20:00:14Z</time>
      </trkpt>
      <trkpt lat="51.228170783185" lon="4.447119136542">
        <ele>0.6</ele>
        <time>2020-07-10T20:00:29Z</time>
      </trkpt>
      <trkpt lat="51.22821562635" lon="4.447057361939">
        <ele>1</ele>
        <time>2020-07-10T20:00:32Z</time>
      </trkpt>
      <trkpt lat="51.228616784084" lon="4.447665720241">
        <ele>2.4</ele>
        <time>2020-07-10T20:00:51Z</time>
      </trkpt>
      <trkpt lat="51.228993215213" lon="4.4482827119">
        <ele>0</ele>
        <time>2020-07-10T20:01:06Z</time>
      </trkpt>
      <trkpt lat="51.229060438051" lon="4.448441213629">
        <ele>0</ele>
        <time>2020-07-10T20:01:10Z</time>
      </trkpt>
      <trkpt lat="51.229033532152" lon="4.448523104792">
        <ele>0.6</ele>
        <time>2020-07-10T20:01:14Z</time>
      </trkpt>
      <trkpt lat="51.228619466292" lon="4.449153256034">
        <ele>4.6</ele>
        <time>2020-07-10T20:01:27Z</time>
      </trkpt>
      <trkpt lat="51.228469765558" lon="4.449292227936">
        <ele>0</ele>
        <time>2020-07-10T20:01:52Z</time>
      </trkpt>
    </trkseg>
  </trk>
</gpx>